sensor_id;sensor_type;location;lat;lon;timestamp;P1;durP1;ratioP1;P2;durP2;ratioP2
74487;SDS011;63019;51.080;13.642;2022-10-16T00:00:37;2.65;;;1.60;;
74487;SDS011;63019;51.080;13.642;2022-10-16T00:01:40;4.63;;;1.52;;
74487;SDS011;63019;51.080;13.642;2022-10-16T00:02:41;4.72;;;1.60;;
74487;SDS011;63019;51.080;13.642;2022-10-16T00:03:44;3.30;;;1.50;;
74487;SDS011;63019;51.080;13.642;2022-10-16T00:04:46;4.22;;;1.58;;
74487;SDS011;63019;51.080;13.642;2022-10-16T00:05:47;1.83;;;1.30;;
74487;SDS011;63019;51.080;13.642;2022-10-16T00:06:49;2.97;;;1.60;;
74487;SDS011;63019;51.080;13.642;2022-10-16T00:07:51;1.80;;;1.42;;
74487;SDS011;63019;51.080;13.642;2022-10-16T00:08:53;2.35;;;1.48;;
74487;SDS011;63019;51.080;13.642;2022-10-16T00:09:55;5.13;;;1.20;;
74487;SDS011;63019;51.080;13.642;2022-10-16T00:12:07;1.50;;;1.10;;
74487;SDS011;63019;51.080;13.642;2022-10-16T00:13:08;2.85;;;1.30;;
74487;SDS011;63019;51.080;13.642;2022-10-16T00:14:11;3.10;;;1.40;;
74487;SDS011;63019;51.080;13.642;2022-10-16T00:15:15;3.78;;;1.60;;
74487;SDS011;63019;51.080;13.642;2022-10-16T00:16:17;4.72;;;1.30;;
74487;SDS011;63019;51.080;13.642;2022-10-16T00:17:19;5.45;;;1.20;;
74487;SDS011;63019;51.080;13.642;2022-10-16T00:18:21;4.88;;;1.40;;
74487;SDS011;63019;51.080;13.642;2022-10-16T00:19:23;2.80;;;1.45;;
74487;SDS011;63019;51.080;13.642;2022-10-16T00:20:24;5.63;;;1.73;;
74487;SDS011;63019;51.080;13.642;2022-10-16T00:21:27;4.72;;;1.35;;
74487;SDS011;63019;51.080;13.642;2022-10-16T00:22:30;5.53;;;1.50;;
74487;SDS011;63019;51.080;13.642;2022-10-16T00:23:32;4.45;;;1.70;;
74487;SDS011;63019;51.080;13.642;2022-10-16T00:24:34;7.87;;;1.40;;
74487;SDS011;63019;51.080;13.642;2022-10-16T00:25:37;5.03;;;1.48;;
74487;SDS011;63019;51.080;13.642;2022-10-16T00:26:39;7.82;;;1.60;;
74487;SDS011;63019;51.080;13.642;2022-10-16T00:27:41;7.13;;;1.65;;
74487;SDS011;63019;51.080;13.642;2022-10-16T00:28:50;3.75;;;1.38;;
74487;SDS011;63019;51.080;13.642;2022-10-16T00:29:52;6.45;;;1.50;;
74487;SDS011;63019;51.080;13.642;2022-10-16T00:30:54;4.88;;;1.50;;
74487;SDS011;63019;51.080;13.642;2022-10-16T00:31:56;4.68;;;1.80;;
74487;SDS011;63019;51.080;13.642;2022-10-16T00:32:58;3.75;;;1.52;;
74487;SDS011;63019;51.080;13.642;2022-10-16T00:33:59;7.00;;;3.00;;
74487;SDS011;63019;51.080;13.642;2022-10-16T00:35:01;4.33;;;1.83;;
74487;SDS011;63019;51.080;13.642;2022-10-16T00:36:05;2.72;;;1.40;;
74487;SDS011;63019;51.080;13.642;2022-10-16T00:37:08;5.18;;;1.90;;
74487;SDS011;63019;51.080;13.642;2022-10-16T00:38:10;8.60;;;1.52;;
74487;SDS011;63019;51.080;13.642;2022-10-16T00:39:12;4.28;;;1.60;;
74487;SDS011;63019;51.080;13.642;2022-10-16T00:40:14;1.88;;;1.30;;
74487;SDS011;63019;51.080;13.642;2022-10-16T00:41:16;2.55;;;1.20;;
74487;SDS011;63019;51.080;13.642;2022-10-16T00:42:18;3.45;;;1.50;;
74487;SDS011;63019;51.080;13.642;2022-10-16T00:44:56;3.25;;;1.40;;
74487;SDS011;63019;51.080;13.642;2022-10-16T00:45:59;1.97;;;1.20;;
74487;SDS011;63019;51.080;13.642;2022-10-16T00:47:02;2.13;;;1.63;;
74487;SDS011;63019;51.080;13.642;2022-10-16T00:48:03;3.00;;;1.77;;
74487;SDS011;63019;51.080;13.642;2022-10-16T00:49:08;5.00;;;2.03;;
74487;SDS011;63019;51.080;13.642;2022-10-16T00:51:25;6.22;;;2.20;;
74487;SDS011;63019;51.080;13.642;2022-10-16T00:52:33;6.32;;;2.90;;
74487;SDS011;63019;51.080;13.642;2022-10-16T00:53:35;4.93;;;3.33;;
74487;SDS011;63019;51.080;13.642;2022-10-16T00:54:37;10.15;;;3.35;;
74487;SDS011;63019;51.080;13.642;2022-10-16T00:55:39;6.88;;;4.70;;
74487;SDS011;63019;51.080;13.642;2022-10-16T00:56:43;9.20;;;5.30;;
74487;SDS011;63019;51.080;13.642;2022-10-16T00:57:46;8.68;;;5.10;;
74487;SDS011;63019;51.080;13.642;2022-10-16T00:58:50;8.90;;;5.28;;
74487;SDS011;63019;51.080;13.642;2022-10-16T00:59:51;9.82;;;5.50;;
74487;SDS011;63019;51.080;13.642;2022-10-16T01:00:54;10.25;;;5.63;;
74487;SDS011;63019;51.080;13.642;2022-10-16T01:01:56;9.68;;;5.85;;
74487;SDS011;63019;51.080;13.642;2022-10-16T01:02:59;10.38;;;5.65;;
74487;SDS011;63019;51.080;13.642;2022-10-16T01:04:02;9.73;;;5.72;;
74487;SDS011;63019;51.080;13.642;2022-10-16T01:05:04;11.40;;;5.90;;
74487;SDS011;63019;51.080;13.642;2022-10-16T01:06:21;9.02;;;5.82;;
74487;SDS011;63019;51.080;13.642;2022-10-16T01:10:57;11.43;;;5.32;;
74487;SDS011;63019;51.080;13.642;2022-10-16T01:12:18;8.23;;;4.53;;
74487;SDS011;63019;51.080;13.642;2022-10-16T01:13:29;9.65;;;4.88;;
74487;SDS011;63019;51.080;13.642;2022-10-16T01:17:32;8.38;;;3.80;;
74487;SDS011;63019;51.080;13.642;2022-10-16T01:21:22;5.83;;;3.47;;
74487;SDS011;63019;51.080;13.642;2022-10-16T01:22:25;6.03;;;3.42;;
74487;SDS011;63019;51.080;13.642;2022-10-16T01:25:23;4.93;;;2.95;;
74487;SDS011;63019;51.080;13.642;2022-10-16T01:26:41;6.63;;;2.80;;
74487;SDS011;63019;51.080;13.642;2022-10-16T01:28:05;5.30;;;3.03;;
74487;SDS011;63019;51.080;13.642;2022-10-16T01:29:15;6.38;;;2.83;;
74487;SDS011;63019;51.080;13.642;2022-10-16T01:30:30;7.28;;;2.50;;
74487;SDS011;63019;51.080;13.642;2022-10-16T01:31:35;4.07;;;2.50;;
74487;SDS011;63019;51.080;13.642;2022-10-16T01:32:41;5.65;;;2.30;;
74487;SDS011;63019;51.080;13.642;2022-10-16T01:34:23;5.40;;;2.70;;
74487;SDS011;63019;51.080;13.642;2022-10-16T01:35:26;3.60;;;2.63;;
74487;SDS011;63019;51.080;13.642;2022-10-16T01:36:53;4.90;;;2.40;;
74487;SDS011;63019;51.080;13.642;2022-10-16T01:38:00;6.05;;;2.10;;
74487;SDS011;63019;51.080;13.642;2022-10-16T01:39:20;6.35;;;2.25;;
74487;SDS011;63019;51.080;13.642;2022-10-16T01:40:26;8.32;;;2.40;;
74487;SDS011;63019;51.080;13.642;2022-10-16T01:41:37;8.32;;;2.20;;
74487;SDS011;63019;51.080;13.642;2022-10-16T01:42:43;7.70;;;2.90;;
74487;SDS011;63019;51.080;13.642;2022-10-16T01:43:50;4.82;;;2.75;;
74487;SDS011;63019;51.080;13.642;2022-10-16T01:44:59;12.00;;;2.80;;
74487;SDS011;63019;51.080;13.642;2022-10-16T01:46:02;10.13;;;3.17;;
74487;SDS011;63019;51.080;13.642;2022-10-16T01:47:04;8.77;;;2.90;;
74487;SDS011;63019;51.080;13.642;2022-10-16T01:48:09;6.78;;;2.75;;
74487;SDS011;63019;51.080;13.642;2022-10-16T01:49:14;17.88;;;3.05;;
74487;SDS011;63019;51.080;13.642;2022-10-16T01:50:18;7.90;;;3.05;;
74487;SDS011;63019;51.080;13.642;2022-10-16T01:51:21;11.98;;;2.65;;
74487;SDS011;63019;51.080;13.642;2022-10-16T01:52:25;9.30;;;2.40;;
74487;SDS011;63019;51.080;13.642;2022-10-16T01:53:30;8.25;;;2.90;;
74487;SDS011;63019;51.080;13.642;2022-10-16T01:54:33;9.45;;;2.20;;
74487;SDS011;63019;51.080;13.642;2022-10-16T01:55:37;5.20;;;2.17;;
74487;SDS011;63019;51.080;13.642;2022-10-16T01:56:45;3.20;;;1.90;;
74487;SDS011;63019;51.080;13.642;2022-10-16T01:57:48;3.13;;;2.00;;
74487;SDS011;63019;51.080;13.642;2022-10-16T01:58:53;6.10;;;2.42;;
74487;SDS011;63019;51.080;13.642;2022-10-16T02:00:00;5.22;;;2.05;;
74487;SDS011;63019;51.080;13.642;2022-10-16T02:01:05;2.60;;;2.05;;
74487;SDS011;63019;51.080;13.642;2022-10-16T02:02:10;5.60;;;2.53;;
74487;SDS011;63019;51.080;13.642;2022-10-16T02:03:14;5.47;;;1.90;;
74487;SDS011;63019;51.080;13.642;2022-10-16T02:04:33;4.93;;;2.40;;
74487;SDS011;63019;51.080;13.642;2022-10-16T02:05:40;3.15;;;2.15;;
74487;SDS011;63019;51.080;13.642;2022-10-16T02:06:48;3.95;;;2.30;;
74487;SDS011;63019;51.080;13.642;2022-10-16T02:07:49;2.70;;;2.10;;
74487;SDS011;63019;51.080;13.642;2022-10-16T02:08:51;3.20;;;2.10;;
74487;SDS011;63019;51.080;13.642;2022-10-16T02:09:54;4.72;;;2.10;;
74487;SDS011;63019;51.080;13.642;2022-10-16T02:10:56;3.33;;;1.85;;
74487;SDS011;63019;51.080;13.642;2022-10-16T02:11:59;4.88;;;1.83;;
74487;SDS011;63019;51.080;13.642;2022-10-16T02:13:08;4.68;;;1.88;;
74487;SDS011;63019;51.080;13.642;2022-10-16T02:14:18;2.33;;;1.60;;
74487;SDS011;63019;51.080;13.642;2022-10-16T02:15:20;2.63;;;1.50;;
74487;SDS011;63019;51.080;13.642;2022-10-16T02:16:26;3.22;;;1.60;;
74487;SDS011;63019;51.080;13.642;2022-10-16T02:17:38;2.40;;;1.55;;
74487;SDS011;63019;51.080;13.642;2022-10-16T02:18:41;3.20;;;1.33;;
74487;SDS011;63019;51.080;13.642;2022-10-16T02:19:44;2.63;;;1.40;;
74487;SDS011;63019;51.080;13.642;2022-10-16T02:20:51;2.88;;;0.98;;
74487;SDS011;63019;51.080;13.642;2022-10-16T02:22:00;6.18;;;1.40;;
74487;SDS011;63019;51.080;13.642;2022-10-16T02:23:05;1.63;;;1.33;;
74487;SDS011;63019;51.080;13.642;2022-10-16T02:25:37;6.20;;;1.10;;
74487;SDS011;63019;51.080;13.642;2022-10-16T02:28:17;4.25;;;1.40;;
74487;SDS011;63019;51.080;13.642;2022-10-16T02:29:25;3.90;;;1.30;;
74487;SDS011;63019;51.080;13.642;2022-10-16T02:30:29;2.10;;;1.30;;
74487;SDS011;63019;51.080;13.642;2022-10-16T02:31:32;2.13;;;1.15;;
74487;SDS011;63019;51.080;13.642;2022-10-16T02:32:38;1.85;;;1.10;;
74487;SDS011;63019;51.080;13.642;2022-10-16T02:33:43;2.05;;;1.20;;
74487;SDS011;63019;51.080;13.642;2022-10-16T02:34:46;3.88;;;1.30;;
74487;SDS011;63019;51.080;13.642;2022-10-16T02:35:50;2.15;;;1.08;;
74487;SDS011;63019;51.080;13.642;2022-10-16T02:36:52;2.72;;;1.30;;
74487;SDS011;63019;51.080;13.642;2022-10-16T02:37:55;3.47;;;1.23;;
74487;SDS011;63019;51.080;13.642;2022-10-16T02:38:58;2.10;;;1.23;;
74487;SDS011;63019;51.080;13.642;2022-10-16T02:40:02;3.92;;;1.30;;
74487;SDS011;63019;51.080;13.642;2022-10-16T02:41:06;3.20;;;1.23;;
74487;SDS011;63019;51.080;13.642;2022-10-16T02:42:11;1.95;;;1.42;;
74487;SDS011;63019;51.080;13.642;2022-10-16T02:43:14;1.85;;;1.35;;
74487;SDS011;63019;51.080;13.642;2022-10-16T02:44:16;2.13;;;1.40;;
74487;SDS011;63019;51.080;13.642;2022-10-16T02:45:18;2.67;;;1.60;;
74487;SDS011;63019;51.080;13.642;2022-10-16T02:46:20;1.52;;;1.20;;
74487;SDS011;63019;51.080;13.642;2022-10-16T02:47:22;1.38;;;1.05;;
74487;SDS011;63019;51.080;13.642;2022-10-16T02:48:24;3.80;;;1.38;;
74487;SDS011;63019;51.080;13.642;2022-10-16T02:49:25;3.50;;;1.55;;
74487;SDS011;63019;51.080;13.642;2022-10-16T02:50:27;2.22;;;1.60;;
74487;SDS011;63019;51.080;13.642;2022-10-16T02:51:29;1.73;;;1.30;;
74487;SDS011;63019;51.080;13.642;2022-10-16T02:52:30;2.55;;;1.30;;
74487;SDS011;63019;51.080;13.642;2022-10-16T02:53:32;2.17;;;1.30;;
74487;SDS011;63019;51.080;13.642;2022-10-16T02:54:34;1.95;;;1.20;;
74487;SDS011;63019;51.080;13.642;2022-10-16T02:55:35;2.75;;;1.00;;
74487;SDS011;63019;51.080;13.642;2022-10-16T02:56:37;2.10;;;1.20;;
74487;SDS011;63019;51.080;13.642;2022-10-16T02:57:39;2.13;;;1.13;;
74487;SDS011;63019;51.080;13.642;2022-10-16T02:58:41;3.40;;;1.35;;
74487;SDS011;63019;51.080;13.642;2022-10-16T02:59:43;2.67;;;1.33;;
74487;SDS011;63019;51.080;13.642;2022-10-16T03:00:45;7.68;;;1.30;;
74487;SDS011;63019;51.080;13.642;2022-10-16T03:01:47;2.50;;;1.40;;
74487;SDS011;63019;51.080;13.642;2022-10-16T03:02:49;4.05;;;1.45;;
74487;SDS011;63019;51.080;13.642;2022-10-16T03:03:50;4.53;;;1.52;;
74487;SDS011;63019;51.080;13.642;2022-10-16T03:04:52;2.63;;;1.27;;
74487;SDS011;63019;51.080;13.642;2022-10-16T03:05:54;6.05;;;1.52;;
74487;SDS011;63019;51.080;13.642;2022-10-16T03:06:55;3.08;;;1.30;;
74487;SDS011;63019;51.080;13.642;2022-10-16T03:07:57;4.07;;;1.40;;
74487;SDS011;63019;51.080;13.642;2022-10-16T03:09:01;1.80;;;1.20;;
74487;SDS011;63019;51.080;13.642;2022-10-16T03:10:03;2.60;;;1.65;;
74487;SDS011;63019;51.080;13.642;2022-10-16T03:11:05;6.03;;;1.40;;
74487;SDS011;63019;51.080;13.642;2022-10-16T03:12:06;2.90;;;1.60;;
74487;SDS011;63019;51.080;13.642;2022-10-16T03:13:08;5.93;;;1.60;;
74487;SDS011;63019;51.080;13.642;2022-10-16T03:14:10;1.88;;;1.30;;
74487;SDS011;63019;51.080;13.642;2022-10-16T03:15:11;4.18;;;1.40;;
74487;SDS011;63019;51.080;13.642;2022-10-16T03:16:13;4.25;;;1.55;;
74487;SDS011;63019;51.080;13.642;2022-10-16T03:17:15;3.20;;;1.55;;
74487;SDS011;63019;51.080;13.642;2022-10-16T03:18:18;2.72;;;1.60;;
74487;SDS011;63019;51.080;13.642;2022-10-16T03:19:19;3.30;;;1.50;;
74487;SDS011;63019;51.080;13.642;2022-10-16T03:20:21;1.63;;;1.50;;
74487;SDS011;63019;51.080;13.642;2022-10-16T03:21:23;4.10;;;1.40;;
74487;SDS011;63019;51.080;13.642;2022-10-16T03:22:24;5.47;;;1.60;;
74487;SDS011;63019;51.080;13.642;2022-10-16T03:23:26;2.28;;;1.40;;
74487;SDS011;63019;51.080;13.642;2022-10-16T03:24:34;2.03;;;1.63;;
74487;SDS011;63019;51.080;13.642;2022-10-16T03:25:35;2.20;;;1.60;;
74487;SDS011;63019;51.080;13.642;2022-10-16T03:26:37;4.18;;;1.90;;
74487;SDS011;63019;51.080;13.642;2022-10-16T03:27:39;3.92;;;1.60;;
74487;SDS011;63019;51.080;13.642;2022-10-16T03:28:40;4.78;;;1.85;;
74487;SDS011;63019;51.080;13.642;2022-10-16T03:29:42;3.22;;;1.77;;
74487;SDS011;63019;51.080;13.642;2022-10-16T03:30:44;2.88;;;2.00;;
74487;SDS011;63019;51.080;13.642;2022-10-16T03:31:46;4.75;;;2.10;;
74487;SDS011;63019;51.080;13.642;2022-10-16T03:32:49;2.57;;;2.10;;
74487;SDS011;63019;51.080;13.642;2022-10-16T03:33:55;4.90;;;2.20;;
74487;SDS011;63019;51.080;13.642;2022-10-16T03:34:57;3.60;;;2.10;;
74487;SDS011;63019;51.080;13.642;2022-10-16T03:35:59;4.78;;;2.40;;
74487;SDS011;63019;51.080;13.642;2022-10-16T03:37:01;4.30;;;1.98;;
74487;SDS011;63019;51.080;13.642;2022-10-16T03:38:02;3.67;;;2.30;;
74487;SDS011;63019;51.080;13.642;2022-10-16T03:39:04;4.50;;;2.03;;
74487;SDS011;63019;51.080;13.642;2022-10-16T03:40:06;6.65;;;2.65;;
74487;SDS011;63019;51.080;13.642;2022-10-16T03:41:08;5.90;;;2.53;;
74487;SDS011;63019;51.080;13.642;2022-10-16T03:42:10;3.28;;;1.83;;
74487;SDS011;63019;51.080;13.642;2022-10-16T03:43:11;7.57;;;2.33;;
74487;SDS011;63019;51.080;13.642;2022-10-16T03:44:16;3.47;;;2.00;;
74487;SDS011;63019;51.080;13.642;2022-10-16T03:45:18;4.28;;;2.38;;
74487;SDS011;63019;51.080;13.642;2022-10-16T03:46:20;3.17;;;1.95;;
74487;SDS011;63019;51.080;13.642;2022-10-16T03:47:21;3.85;;;2.10;;
74487;SDS011;63019;51.080;13.642;2022-10-16T03:48:25;3.42;;;1.63;;
74487;SDS011;63019;51.080;13.642;2022-10-16T03:49:26;6.05;;;2.00;;
74487;SDS011;63019;51.080;13.642;2022-10-16T03:50:28;3.35;;;1.45;;
74487;SDS011;63019;51.080;13.642;2022-10-16T03:51:30;3.55;;;1.70;;
74487;SDS011;63019;51.080;13.642;2022-10-16T03:52:32;5.80;;;1.33;;
74487;SDS011;63019;51.080;13.642;2022-10-16T03:53:34;5.67;;;1.60;;
74487;SDS011;63019;51.080;13.642;2022-10-16T03:54:36;3.85;;;1.30;;
74487;SDS011;63019;51.080;13.642;2022-10-16T03:55:37;4.72;;;1.52;;
74487;SDS011;63019;51.080;13.642;2022-10-16T03:56:39;7.63;;;2.10;;
74487;SDS011;63019;51.080;13.642;2022-10-16T03:57:41;6.80;;;2.10;;
74487;SDS011;63019;51.080;13.642;2022-10-16T03:58:42;10.32;;;2.53;;
74487;SDS011;63019;51.080;13.642;2022-10-16T03:59:44;5.68;;;2.28;;
74487;SDS011;63019;51.080;13.642;2022-10-16T04:00:46;10.20;;;2.38;;
74487;SDS011;63019;51.080;13.642;2022-10-16T04:01:49;12.43;;;2.30;;
74487;SDS011;63019;51.080;13.642;2022-10-16T04:02:50;13.85;;;2.40;;
74487;SDS011;63019;51.080;13.642;2022-10-16T04:03:52;8.10;;;1.80;;
74487;SDS011;63019;51.080;13.642;2022-10-16T04:04:54;8.40;;;1.92;;
74487;SDS011;63019;51.080;13.642;2022-10-16T04:05:55;3.65;;;1.70;;
74487;SDS011;63019;51.080;13.642;2022-10-16T04:06:57;3.42;;;1.70;;
74487;SDS011;63019;51.080;13.642;2022-10-16T04:07:59;5.60;;;1.70;;
74487;SDS011;63019;51.080;13.642;2022-10-16T04:09:01;3.53;;;1.27;;
74487;SDS011;63019;51.080;13.642;2022-10-16T04:10:03;3.80;;;1.30;;
74487;SDS011;63019;51.080;13.642;2022-10-16T04:11:05;4.10;;;1.30;;
74487;SDS011;63019;51.080;13.642;2022-10-16T04:12:07;7.15;;;1.35;;
74487;SDS011;63019;51.080;13.642;2022-10-16T04:13:09;3.40;;;1.00;;
74487;SDS011;63019;51.080;13.642;2022-10-16T04:14:11;2.27;;;1.10;;
74487;SDS011;63019;51.080;13.642;2022-10-16T04:15:12;3.35;;;1.00;;
74487;SDS011;63019;51.080;13.642;2022-10-16T04:16:14;3.08;;;1.10;;
74487;SDS011;63019;51.080;13.642;2022-10-16T04:17:16;2.90;;;1.10;;
74487;SDS011;63019;51.080;13.642;2022-10-16T04:18:18;4.60;;;1.20;;
74487;SDS011;63019;51.080;13.642;2022-10-16T04:19:19;2.95;;;1.10;;
74487;SDS011;63019;51.080;13.642;2022-10-16T04:20:21;2.33;;;1.20;;
74487;SDS011;63019;51.080;13.642;2022-10-16T04:21:23;1.13;;;1.00;;
74487;SDS011;63019;51.080;13.642;2022-10-16T04:22:24;2.20;;;1.00;;
74487;SDS011;63019;51.080;13.642;2022-10-16T04:23:27;3.53;;;1.38;;
74487;SDS011;63019;51.080;13.642;2022-10-16T04:24:29;1.40;;;0.90;;
74487;SDS011;63019;51.080;13.642;2022-10-16T04:25:30;3.60;;;1.10;;
74487;SDS011;63019;51.080;13.642;2022-10-16T04:26:32;6.78;;;1.25;;
74487;SDS011;63019;51.080;13.642;2022-10-16T04:27:34;2.08;;;1.00;;
74487;SDS011;63019;51.080;13.642;2022-10-16T04:28:36;2.80;;;1.30;;
74487;SDS011;63019;51.080;13.642;2022-10-16T04:29:37;2.20;;;1.45;;
74487;SDS011;63019;51.080;13.642;2022-10-16T04:30:39;2.38;;;1.08;;
74487;SDS011;63019;51.080;13.642;2022-10-16T04:31:41;2.08;;;1.15;;
74487;SDS011;63019;51.080;13.642;2022-10-16T04:32:42;3.70;;;1.35;;
74487;SDS011;63019;51.080;13.642;2022-10-16T04:33:44;4.30;;;1.30;;
74487;SDS011;63019;51.080;13.642;2022-10-16T04:34:46;4.10;;;1.13;;
74487;SDS011;63019;51.080;13.642;2022-10-16T04:35:48;4.25;;;1.23;;
74487;SDS011;63019;51.080;13.642;2022-10-16T04:36:49;2.08;;;1.10;;
74487;SDS011;63019;51.080;13.642;2022-10-16T04:37:51;8.52;;;1.52;;
74487;SDS011;63019;51.080;13.642;2022-10-16T04:38:53;4.30;;;1.30;;
74487;SDS011;63019;51.080;13.642;2022-10-16T04:39:55;4.95;;;1.50;;
74487;SDS011;63019;51.080;13.642;2022-10-16T04:40:56;3.40;;;1.50;;
74487;SDS011;63019;51.080;13.642;2022-10-16T04:41:58;4.93;;;1.40;;
74487;SDS011;63019;51.080;13.642;2022-10-16T04:43:00;6.57;;;1.40;;
74487;SDS011;63019;51.080;13.642;2022-10-16T04:44:01;13.38;;;1.70;;
74487;SDS011;63019;51.080;13.642;2022-10-16T04:45:04;6.23;;;1.60;;
74487;SDS011;63019;51.080;13.642;2022-10-16T04:46:07;3.63;;;1.70;;
74487;SDS011;63019;51.080;13.642;2022-10-16T04:47:08;4.78;;;1.50;;
74487;SDS011;63019;51.080;13.642;2022-10-16T04:48:10;6.75;;;1.40;;
74487;SDS011;63019;51.080;13.642;2022-10-16T04:49:12;7.28;;;1.85;;
74487;SDS011;63019;51.080;13.642;2022-10-16T04:50:13;3.50;;;1.60;;
74487;SDS011;63019;51.080;13.642;2022-10-16T04:51:15;6.00;;;1.60;;
74487;SDS011;63019;51.080;13.642;2022-10-16T04:52:17;3.60;;;1.48;;
74487;SDS011;63019;51.080;13.642;2022-10-16T04:53:20;3.13;;;1.38;;
74487;SDS011;63019;51.080;13.642;2022-10-16T04:54:21;5.47;;;1.70;;
74487;SDS011;63019;51.080;13.642;2022-10-16T04:55:23;5.90;;;1.73;;
74487;SDS011;63019;51.080;13.642;2022-10-16T04:56:25;6.57;;;1.80;;
74487;SDS011;63019;51.080;13.642;2022-10-16T04:57:27;8.00;;;2.20;;
74487;SDS011;63019;51.080;13.642;2022-10-16T04:58:30;7.00;;;2.20;;
74487;SDS011;63019;51.080;13.642;2022-10-16T04:59:31;10.52;;;1.90;;
74487;SDS011;63019;51.080;13.642;2022-10-16T05:00:33;7.22;;;1.60;;
74487;SDS011;63019;51.080;13.642;2022-10-16T05:01:35;7.20;;;1.88;;
74487;SDS011;63019;51.080;13.642;2022-10-16T05:02:37;5.80;;;1.60;;
74487;SDS011;63019;51.080;13.642;2022-10-16T05:03:38;2.70;;;1.20;;
74487;SDS011;63019;51.080;13.642;2022-10-16T05:04:40;3.97;;;1.25;;
74487;SDS011;63019;51.080;13.642;2022-10-16T05:05:45;3.23;;;1.10;;
74487;SDS011;63019;51.080;13.642;2022-10-16T05:06:47;2.65;;;0.98;;
74487;SDS011;63019;51.080;13.642;2022-10-16T05:07:49;2.58;;;1.13;;
74487;SDS011;63019;51.080;13.642;2022-10-16T05:08:50;3.28;;;0.80;;
74487;SDS011;63019;51.080;13.642;2022-10-16T05:09:52;2.22;;;0.90;;
74487;SDS011;63019;51.080;13.642;2022-10-16T05:10:54;1.75;;;0.65;;
74487;SDS011;63019;51.080;13.642;2022-10-16T05:11:56;2.42;;;0.70;;
74487;SDS011;63019;51.080;13.642;2022-10-16T05:12:57;0.85;;;0.52;;
74487;SDS011;63019;51.080;13.642;2022-10-16T05:13:59;1.35;;;0.52;;
74487;SDS011;63019;51.080;13.642;2022-10-16T05:15:01;0.70;;;0.60;;
74487;SDS011;63019;51.080;13.642;2022-10-16T05:16:04;1.97;;;0.50;;
74487;SDS011;63019;51.080;13.642;2022-10-16T05:17:06;1.05;;;0.40;;
74487;SDS011;63019;51.080;13.642;2022-10-16T05:18:08;0.65;;;0.50;;
74487;SDS011;63019;51.080;13.642;2022-10-16T05:19:09;1.70;;;0.52;;
74487;SDS011;63019;51.080;13.642;2022-10-16T05:20:28;5.28;;;0.40;;
74487;SDS011;63019;51.080;13.642;2022-10-16T05:21:30;2.45;;;0.50;;
74487;SDS011;63019;51.080;13.642;2022-10-16T05:22:32;2.25;;;0.50;;
74487;SDS011;63019;51.080;13.642;2022-10-16T05:23:33;0.80;;;0.50;;
74487;SDS011;63019;51.080;13.642;2022-10-16T05:24:35;0.85;;;0.50;;
74487;SDS011;63019;51.080;13.642;2022-10-16T05:25:37;0.47;;;0.38;;
74487;SDS011;63019;51.080;13.642;2022-10-16T05:26:39;0.40;;;0.40;;
74487;SDS011;63019;51.080;13.642;2022-10-16T05:27:40;2.17;;;0.55;;
74487;SDS011;63019;51.080;13.642;2022-10-16T05:28:42;3.03;;;0.60;;
74487;SDS011;63019;51.080;13.642;2022-10-16T05:29:46;0.75;;;0.52;;
74487;SDS011;63019;51.080;13.642;2022-10-16T05:30:49;1.77;;;0.98;;
74487;SDS011;63019;51.080;13.642;2022-10-16T05:31:52;3.25;;;0.52;;
74487;SDS011;63019;51.080;13.642;2022-10-16T05:32:54;0.82;;;0.45;;
74487;SDS011;63019;51.080;13.642;2022-10-16T05:33:59;0.70;;;0.40;;
74487;SDS011;63019;51.080;13.642;2022-10-16T05:35:01;5.70;;;0.60;;
74487;SDS011;63019;51.080;13.642;2022-10-16T05:36:07;0.73;;;0.47;;
74487;SDS011;63019;51.080;13.642;2022-10-16T05:37:10;1.23;;;0.43;;
74487;SDS011;63019;51.080;13.642;2022-10-16T05:38:13;1.70;;;0.50;;
74487;SDS011;63019;51.080;13.642;2022-10-16T05:39:15;2.00;;;0.40;;
74487;SDS011;63019;51.080;13.642;2022-10-16T05:40:17;0.60;;;0.50;;
74487;SDS011;63019;51.080;13.642;2022-10-16T05:41:19;0.45;;;0.40;;
74487;SDS011;63019;51.080;13.642;2022-10-16T05:42:22;3.45;;;0.60;;
74487;SDS011;63019;51.080;13.642;2022-10-16T05:43:24;1.42;;;0.60;;
74487;SDS011;63019;51.080;13.642;2022-10-16T05:44:27;2.67;;;0.60;;
74487;SDS011;63019;51.080;13.642;2022-10-16T05:45:30;1.85;;;0.70;;
74487;SDS011;63019;51.080;13.642;2022-10-16T05:46:32;0.73;;;0.50;;
74487;SDS011;63019;51.080;13.642;2022-10-16T05:47:34;2.13;;;0.60;;
74487;SDS011;63019;51.080;13.642;2022-10-16T05:48:35;2.83;;;0.50;;
74487;SDS011;63019;51.080;13.642;2022-10-16T05:49:37;2.30;;;0.60;;
74487;SDS011;63019;51.080;13.642;2022-10-16T05:50:41;1.95;;;0.50;;
74487;SDS011;63019;51.080;13.642;2022-10-16T05:51:43;0.95;;;0.50;;
74487;SDS011;63019;51.080;13.642;2022-10-16T05:52:45;1.65;;;0.50;;
74487;SDS011;63019;51.080;13.642;2022-10-16T05:53:46;0.80;;;0.40;;
74487;SDS011;63019;51.080;13.642;2022-10-16T05:54:48;1.90;;;0.65;;
74487;SDS011;63019;51.080;13.642;2022-10-16T05:55:54;1.17;;;0.57;;
74487;SDS011;63019;51.080;13.642;2022-10-16T05:56:56;1.30;;;0.70;;
74487;SDS011;63019;51.080;13.642;2022-10-16T05:57:58;1.30;;;0.57;;
74487;SDS011;63019;51.080;13.642;2022-10-16T05:59:00;0.88;;;0.60;;
74487;SDS011;63019;51.080;13.642;2022-10-16T06:00:02;1.23;;;0.50;;
74487;SDS011;63019;51.080;13.642;2022-10-16T06:01:06;2.38;;;0.70;;
74487;SDS011;63019;51.080;13.642;2022-10-16T06:02:11;1.95;;;0.70;;
74487;SDS011;63019;51.080;13.642;2022-10-16T06:03:14;1.63;;;0.55;;
74487;SDS011;63019;51.080;13.642;2022-10-16T06:04:16;2.20;;;0.60;;
74487;SDS011;63019;51.080;13.642;2022-10-16T06:05:18;1.25;;;0.68;;
74487;SDS011;63019;51.080;13.642;2022-10-16T06:06:20;1.02;;;0.52;;
74487;SDS011;63019;51.080;13.642;2022-10-16T06:07:23;1.10;;;0.55;;
74487;SDS011;63019;51.080;13.642;2022-10-16T06:08:26;2.13;;;0.60;;
74487;SDS011;63019;51.080;13.642;2022-10-16T06:09:27;1.45;;;0.60;;
74487;SDS011;63019;51.080;13.642;2022-10-16T06:10:29;1.42;;;0.50;;
74487;SDS011;63019;51.080;13.642;2022-10-16T06:11:31;0.65;;;0.40;;
74487;SDS011;63019;51.080;13.642;2022-10-16T06:12:33;1.80;;;0.52;;
74487;SDS011;63019;51.080;13.642;2022-10-16T06:13:35;2.70;;;0.50;;
74487;SDS011;63019;51.080;13.642;2022-10-16T06:14:37;3.13;;;0.60;;
74487;SDS011;63019;51.080;13.642;2022-10-16T06:15:39;1.60;;;0.40;;
74487;SDS011;63019;51.080;13.642;2022-10-16T06:16:43;0.95;;;0.43;;
74487;SDS011;63019;51.080;13.642;2022-10-16T06:17:44;0.65;;;0.43;;
74487;SDS011;63019;51.080;13.642;2022-10-16T06:18:46;0.60;;;0.50;;
74487;SDS011;63019;51.080;13.642;2022-10-16T06:19:48;2.65;;;0.50;;
74487;SDS011;63019;51.080;13.642;2022-10-16T06:20:50;0.85;;;0.50;;
74487;SDS011;63019;51.080;13.642;2022-10-16T06:21:51;1.60;;;0.63;;
74487;SDS011;63019;51.080;13.642;2022-10-16T06:22:53;1.77;;;0.32;;
74487;SDS011;63019;51.080;13.642;2022-10-16T06:23:55;3.75;;;0.47;;
74487;SDS011;63019;51.080;13.642;2022-10-16T06:24:57;1.77;;;0.60;;
74487;SDS011;63019;51.080;13.642;2022-10-16T06:26:09;3.78;;;0.60;;
74487;SDS011;63019;51.080;13.642;2022-10-16T06:27:12;0.50;;;0.50;;
74487;SDS011;63019;51.080;13.642;2022-10-16T06:28:14;0.52;;;0.50;;
74487;SDS011;63019;51.080;13.642;2022-10-16T06:29:16;0.93;;;0.50;;
74487;SDS011;63019;51.080;13.642;2022-10-16T06:30:18;0.90;;;0.50;;
74487;SDS011;63019;51.080;13.642;2022-10-16T06:31:20;3.25;;;0.60;;
74487;SDS011;63019;51.080;13.642;2022-10-16T06:32:22;1.33;;;0.60;;
74487;SDS011;63019;51.080;13.642;2022-10-16T06:33:24;0.60;;;0.50;;